Notice: Trying to access array offset on value of type null in /server/czul.ca/modules/AIRPORT/vatsim_trafic.php on line 15

Warning: Invalid argument supplied for foreach() in /server/czul.ca/modules/AIRPORT/vatsim_trafic.php on line 15
CZUL - FIR virtuelle de Montréal

CYLA

Aupaluk Airport

ICAO Code CYLA
IATA Code YPJ
Name Aupaluk Airport
Location Aupaluk, Quebec, CA
Elevation 121 Feet / 36.9 Meters
Latitude 59.29666667
Longitude -69.59972222
METAR CYLA 011239Z 31014G19KT 13SM OVC010 09/08 A2957 RMK SC8 LAST OBS/NEXT 021200UTC WX SLP017
Extra information Display Charts and CFS
Display NOTAMS
Runway Length Width Surface Elevation
04 3521 ft 100 ft GRAVEL 74 ft
22 3521 ft 100 ft GRAVEL 121 ft